Details From KCRG - KCRG
To KAPF - Naples Muni
Flight Number -
Tags None
Created
Modified
Stats Distance 258 nm / 479 km
Max Altitude 0 ft / 0 m
Waypoints 5
Social Downloads 0
Likes 0
Share VATSIM

Download

Looking for another format? Having issues loading an existing format? Contact us
Advertisement - Login to hide

Notes

None

Route

KCRG OMN ORL RSW KAPF

ID Type Via Altitude Latitude Longitude Leg Dist Tot Dist Heading (true) Name
O KCRG APT - 0 ft / 0 m 30.33633˚ -81.51444˚ - 0 nm - Craig Muni
OMN VOR - 0 ft / 0 m 29.30325˚ -81.11269˚ 65 nm 65 nm 161° / 161° ORMOND BEACH VORTAC
ORL VOR - 0 ft / 0 m 28.54270˚ -81.33504˚ 47 nm 112 nm 194° / 194° ORLANDO VORTAC
RSW VOR - 0 ft / 0 m 26.52987˚ -81.77576˚ 123 nm 235 nm 191° / 191° LEE COUNTY VORTAC
O KAPF APT - 0 ft / 0 m 26.15277˚ -81.77513˚ 22 nm 258 nm 180° / 180° Naples Muni

Altitude Profile

Advertisement - Login to hide

Weather


0- 5 10 15 20 25 30 35+ Temperature / ° C

Clouds and Precipitation
Forecast for 2017-12-13 12:00 UTC. Updated 2 hours ago

Ground ~20,000 ft ~40,000 ft Winds

KCRG

Details ICAO KCRG
Name Craig Muni
Region United States
Timezone America/New_York (UTC-5.0)
Stats Elevation 41 ft / 12 m (AMSL)
Location 30.336334° -81.514457°
Runways 2
Magnetic Variation 6.553° W

METAR

KCRG 131253Z 30007KT 10SM CLR 06/M01 A3010 RMK AO2 SLP191 T00611006

Decode

TAF

TAF KCRG 131120Z 1312/1412 30009KT P6SM SKC FM140000 VRB03KT P6SM SKC

Decode

Departure Runways

ID Width Length Bearing (true) Bearing (mag) Surface Threshold Offset Overrun Length
05 100 ft / 30 m 4,007 ft / 1,221 m 44.86° 51.41° Asphalt 0 ft / 0 m 75 ft / 23 m
14 100 ft / 30 m 4,001 ft / 1,220 m 135.16° 141.71° Asphalt 0 ft / 0 m 75 ft / 23 m
23 100 ft / 30 m 4,007 ft / 1,221 m 224.87° 231.42° Asphalt 0 ft / 0 m 75 ft / 23 m
32 100 ft / 30 m 4,001 ft / 1,220 m 315.16° 321.71° Asphalt 0 ft / 0 m 75 ft / 23 m

KAPF

Details ICAO KAPF (APF)
Name Naples Muni
Region United States
Timezone America/New_York (UTC-5.0)
Stats Elevation 8 ft / 2 m (AMSL)
Location 26.151612° -81.776854°
Runways 3
Magnetic Variation 5.770° W

METAR

KAPF 131253Z 03008KT 10SM CLR 11/03 A3013 RMK AO2 SLP200 T01110033

Decode

TAF

TAF KAPF 131120Z 1312/1412 01008KT P6SM SKC FM131700 31008KT P6SM FEW040 FM140000 VRB03KT P6SM SKC

Decode

Destination Runways

ID Width Length Bearing (true) Bearing (mag) Surface Threshold Offset Overrun Length
05 150 ft / 46 m 5,296 ft / 1,614 m 44.07° 49.84° Asphalt 290 ft / 88 m 0 ft / 0 m
05R 100 ft / 30 m 1,833 ft / 559 m 44.02° 49.79° Grass 0 ft / 0 m 0 ft / 0 m
14 100 ft / 30 m 5,006 ft / 1,526 m 134.39° 140.16° Asphalt 130 ft / 40 m 0 ft / 0 m
23 150 ft / 46 m 5,296 ft / 1,614 m 224.08° 229.85° Asphalt 0 ft / 0 m 0 ft / 0 m
23L 100 ft / 30 m 1,833 ft / 559 m 224.03° 229.80° Grass 0 ft / 0 m 0 ft / 0 m
32 100 ft / 30 m 5,006 ft / 1,526 m 314.39° 320.16° Asphalt 450 ft / 137 m 0 ft / 0 m

Popular Alternatives